Time;durP1;ratioP1;P1;durP2;ratioP2;P2;SDS_P1;SDS_P2;PMS_P1;PMS_P2;Temp;Humidity;BMP_temperature;BMP_pressure;BME280_temperature;BME280_humidity;BME280_pressure;Samples;Min_cycle;Max_cycle;Signal;HPM_P1;HPM_P2
2023/05/04 00:01:58;;;;;;;8.43;7.60;;;10.80;99.90;;;;;;4935249;29;20269;-58
2023/05/04 00:04:26;;;;;;;8.53;7.63;;;10.80;99.90;;;;;;4931959;29;20209;-58
2023/05/04 00:06:53;;;;;;;8.67;8.00;;;10.80;99.90;;;;;;4941894;29;20212;-58
2023/05/04 00:09:20;;;;;;;8.57;7.77;;;10.80;99.90;;;;;;4944889;29;20228;-58
2023/05/04 00:11:47;;;;;;;9.07;8.27;;;10.70;99.90;;;;;;4947703;29;20232;-58
2023/05/04 00:14:14;;;;;;;8.63;7.93;;;10.80;99.90;;;;;;4944960;29;20240;-58
2023/05/04 00:16:41;;;;;;;10.10;8.57;;;10.80;99.90;;;;;;4945242;29;20892;-58
2023/05/04 00:19:08;;;;;;;9.30;8.60;;;10.90;99.90;;;;;;4943770;29;20258;-58
2023/05/04 00:21:36;;;;;;;8.27;7.57;;;10.90;99.90;;;;;;4939288;29;20215;-58
2023/05/04 00:24:03;;;;;;;8.77;8.07;;;11.00;99.90;;;;;;4927059;29;20267;-58
2023/05/04 00:26:30;;;;;;;9.03;8.23;;;11.00;99.90;;;;;;4926372;29;20284;-58
2023/05/04 00:28:57;;;;;;;9.40;8.60;;;10.90;99.90;;;;;;4934368;29;20674;-58
2023/05/04 00:31:24;;;;;;;14.63;10.50;;;10.80;99.90;;;;;;4934372;29;20201;-58
2023/05/04 00:33:51;;;;;;;10.73;9.33;;;10.70;99.90;;;;;;4934049;29;20764;-58
2023/05/04 00:36:18;;;;;;;9.67;8.70;;;10.60;99.90;;;;;;4927489;29;20252;-58
2023/05/04 00:38:50;;;;;;;9.53;8.63;;;10.60;99.90;;;;;;4929376;29;20232;-58
2023/05/04 00:41:18;;;;;;;10.50;8.17;;;10.60;99.90;;;;;;4928890;29;20204;-58
2023/05/04 00:43:46;;;;;;;11.37;10.10;;;10.70;99.90;;;;;;4927273;29;20208;-58
2023/05/04 00:46:13;;;;;;;23.03;14.20;;;10.60;99.90;;;;;;4926917;29;20260;-58
2023/05/04 00:48:41;;;;;;;16.13;12.27;;;10.60;99.90;;;;;;4933887;29;20278;-57
2023/05/04 00:51:10;;;;;;;20.40;13.13;;;10.60;99.90;;;;;;4933983;29;20271;-58
2023/05/04 00:53:37;;;;;;;28.10;16.93;;;10.60;99.90;;;;;;4933383;29;20212;-58
2023/05/04 00:56:07;;;;;;;21.60;13.73;;;10.50;99.90;;;;;;4934088;29;20204;-58
2023/05/04 00:58:34;;;;;;;21.30;14.97;;;10.50;99.90;;;;;;4925685;29;20232;-58
2023/05/04 01:01:02;;;;;;;29.17;19.03;;;10.50;99.90;;;;;;4935852;29;20207;-58
2023/05/04 01:03:29;;;;;;;27.87;17.60;;;10.50;99.90;;;;;;4934333;29;20205;-58
2023/05/04 01:06:05;;;;;;;24.33;16.80;;;10.40;99.90;;;;;;4933202;29;20692;-58
2023/05/04 01:08:32;;;;;;;24.37;15.90;;;10.30;99.90;;;;;;4931049;29;20231;-58
2023/05/04 01:11:07;;;;;;;18.00;13.53;;;10.20;99.90;;;;;;4935000;29;20292;-58
2023/05/04 01:13:36;;;;;;;15.27;11.60;;;10.10;99.90;;;;;;4930100;29;20618;-58
2023/05/04 01:16:03;;;;;;;16.37;13.00;;;9.90;99.90;;;;;;4935268;29;20200;-58
2023/05/04 01:18:31;;;;;;;12.73;10.10;;;9.90;99.90;;;;;;4937290;29;20228;-58
2023/05/04 01:20:58;;;;;;;9.90;8.97;;;9.90;99.90;;;;;;4937483;29;20228;-58
2023/05/04 01:23:27;;;;;;;9.87;8.90;;;9.80;99.90;;;;;;4932024;29;20204;-58
2023/05/04 01:26:00;;;;;;;10.53;9.27;;;9.80;99.90;;;;;;4927179;29;20323;-58
2023/05/04 01:28:33;;;;;;;10.80;9.80;;;9.70;99.90;;;;;;4936859;29;20220;-58
2023/05/04 01:31:02;;;;;;;8.87;8.00;;;9.70;99.90;;;;;;4934976;29;20208;-58
2023/05/04 01:33:31;;;;;;;10.07;9.00;;;9.70;99.90;;;;;;4929344;29;20203;-58
2023/05/04 01:35:59;;;;;;;10.53;9.63;;;9.70;99.90;;;;;;4934286;29;20208;-58
2023/05/04 01:38:27;;;;;;;10.90;9.80;;;9.60;99.90;;;;;;4936448;29;20269;-58
2023/05/04 01:40:55;;;;;;;10.10;9.10;;;9.60;99.90;;;;;;4934969;29;20749;-58
2023/05/04 01:43:22;;;;;;;10.33;9.33;;;9.50;99.90;;;;;;4935682;29;20208;-58
2023/05/04 01:45:49;;;;;;;10.60;9.60;;;9.50;99.90;;;;;;4930238;29;20221;-58
2023/05/04 01:48:16;;;;;;;11.40;10.30;;;9.50;99.90;;;;;;4932020;29;20279;-58
2023/05/04 01:50:43;;;;;;;10.37;9.23;;;9.40;99.90;;;;;;4935263;29;20202;-58
2023/05/04 01:53:10;;;;;;;10.00;9.10;;;9.40;99.90;;;;;;4936725;29;20198;-58
2023/05/04 01:55:39;;;;;;;12.47;10.13;;;9.50;99.90;;;;;;4936584;29;20201;-58
2023/05/04 01:58:06;;;;;;;9.17;8.37;;;9.50;99.90;;;;;;4934981;29;20232;-58
2023/05/04 02:00:33;;;;;;;9.77;8.93;;;9.50;99.90;;;;;;4933778;29;20212;-58
2023/05/04 02:03:00;;;;;;;11.00;9.87;;;9.60;99.90;;;;;;4925161;29;20219;-58
2023/05/04 02:05:27;;;;;;;9.90;8.97;;;9.50;99.90;;;;;;4936350;29;20299;-58
2023/05/04 02:07:54;;;;;;;8.73;7.93;;;9.50;99.90;;;;;;4936432;29;20725;-58
2023/05/04 02:10:21;;;;;;;10.10;9.03;;;9.40;99.90;;;;;;4936903;29;20207;-58
2023/05/04 02:12:49;;;;;;;10.70;9.43;;;9.40;99.90;;;;;;4935886;29;20352;-58
2023/05/04 02:15:16;;;;;;;9.07;8.33;;;9.40;99.90;;;;;;4933459;29;20267;-58
2023/05/04 02:17:43;;;;;;;9.23;8.33;;;9.30;99.90;;;;;;4930366;29;20280;-58
2023/05/04 02:20:11;;;;;;;9.67;8.63;;;9.30;99.90;;;;;;4935029;29;20574;-57
2023/05/04 02:22:38;;;;;;;10.53;9.17;;;9.30;99.90;;;;;;4929211;29;20207;-58
2023/05/04 02:25:06;;;;;;;10.93;8.63;;;9.30;99.90;;;;;;4936466;29;20200;-58
2023/05/04 02:27:33;;;;;;;11.13;10.03;;;9.30;99.90;;;;;;4921269;29;20231;-58
2023/05/04 02:30:03;;;;;;;9.83;8.90;;;9.20;99.90;;;;;;4933727;29;20208;-58
2023/05/04 02:32:30;;;;;;;8.93;8.20;;;9.20;99.90;;;;;;4928902;29;20204;-58
2023/05/04 02:34:57;;;;;;;11.17;9.97;;;9.20;99.90;;;;;;4936005;29;20256;-58
2023/05/04 02:37:24;;;;;;;9.10;8.30;;;9.20;99.90;;;;;;4936322;29;20228;-58
2023/05/04 02:39:51;;;;;;;10.10;9.17;;;9.20;99.90;;;;;;4929882;29;20600;-58
2023/05/04 02:42:18;;;;;;;9.90;9.00;;;9.20;99.90;;;;;;4935942;29;20250;-58
2023/05/04 02:44:45;;;;;;;11.43;9.20;;;9.10;99.90;;;;;;4931770;29;20202;-58
2023/05/04 02:47:13;;;;;;;9.67;8.77;;;9.10;99.90;;;;;;4929958;29;20259;-58
2023/05/04 02:49:40;;;;;;;12.00;8.97;;;9.10;99.90;;;;;;4935738;29;20258;-57
2023/05/04 02:52:07;;;;;;;10.60;9.60;;;9.10;99.90;;;;;;4934456;29;20202;-58
2023/05/04 02:54:34;;;;;;;9.50;8.47;;;9.10;99.90;;;;;;4935411;29;20194;-58
2023/05/04 02:57:01;;;;;;;9.50;8.70;;;9.10;99.90;;;;;;4933126;29;20200;-58
2023/05/04 02:59:28;;;;;;;9.83;8.93;;;9.00;99.90;;;;;;4932356;29;20605;-58
2023/05/04 03:01:55;;;;;;;8.63;7.83;;;9.00;99.90;;;;;;4931063;29;20199;-57
2023/05/04 03:04:24;;;;;;;7.80;7.10;;;9.00;99.90;;;;;;4935546;29;20204;-57
2023/05/04 03:06:50;;;;;;;9.30;8.40;;;8.90;99.90;;;;;;4935611;29;20273;-58
2023/05/04 03:09:17;;;;;;;10.10;8.67;;;9.00;99.90;;;;;;4926778;29;20772;-58
2023/05/04 03:11:44;;;;;;;11.30;8.73;;;8.90;99.90;;;;;;4932517;29;20217;-57
2023/05/04 03:14:11;;;;;;;9.20;8.33;;;8.90;99.90;;;;;;4930445;29;20200;-58
2023/05/04 03:16:38;;;;;;;9.23;8.43;;;8.90;99.90;;;;;;4935036;29;20207;-58
2023/05/04 03:19:05;;;;;;;9.90;8.97;;;8.90;99.90;;;;;;4935427;29;20227;-58
2023/05/04 03:21:33;;;;;;;7.63;6.83;;;8.80;99.90;;;;;;4935779;29;20210;-58
2023/05/04 03:24:00;;;;;;;9.67;8.77;;;8.80;99.90;;;;;;4953403;28;20278;-57
2023/05/04 03:26:27;;;;;;;13.33;9.93;;;8.80;99.90;;;;;;4950350;29;20260;-57
2023/05/04 03:28:54;;;;;;;8.67;7.87;;;8.80;99.90;;;;;;4927616;29;20734;-58
2023/05/04 03:31:21;;;;;;;12.00;9.03;;;8.80;99.90;;;;;;4934999;29;20202;-58
2023/05/04 03:33:48;;;;;;;10.73;9.63;;;8.70;99.90;;;;;;4934797;29;20261;-58
2023/05/04 03:36:15;;;;;;;10.10;9.10;;;8.70;99.90;;;;;;4934953;29;20341;-58
2023/05/04 03:38:43;;;;;;;10.93;9.83;;;8.80;99.90;;;;;;4933717;29;20270;-57
2023/05/04 03:41:11;;;;;;;10.40;8.90;;;8.70;99.90;;;;;;4933541;29;20261;-57
2023/05/04 03:43:38;;;;;;;9.03;8.13;;;8.70;99.90;;;;;;4928485;29;20202;-58
2023/05/04 03:46:05;;;;;;;11.03;8.90;;;8.70;99.90;;;;;;4927738;29;20276;-57
2023/05/04 03:48:32;;;;;;;8.63;7.83;;;8.70;99.90;;;;;;4927277;29;20702;-58
2023/05/04 03:50:59;;;;;;;12.63;8.20;;;8.70;99.90;;;;;;4930717;29;20609;-58
2023/05/04 03:53:26;;;;;;;9.37;8.50;;;8.70;99.90;;;;;;4931938;29;20260;-58
2023/05/04 03:55:54;;;;;;;9.17;7.87;;;8.70;99.90;;;;;;4930625;29;20207;-58
2023/05/04 03:58:21;;;;;;;11.17;9.30;;;8.70;99.90;;;;;;4934422;29;20231;-58
2023/05/04 04:00:48;;;;;;;8.97;8.10;;;8.60;99.90;;;;;;4929960;29;20204;-58
2023/05/04 04:03:15;;;;;;;9.30;8.10;;;8.60;99.90;;;;;;4926854;29;20240;-57
2023/05/04 04:05:42;;;;;;;8.97;8.03;;;8.60;99.90;;;;;;4921122;29;20771;-57
2023/05/04 04:08:09;;;;;;;9.10;7.77;;;8.60;99.90;;;;;;4931632;29;20245;-58
2023/05/04 04:10:36;;;;;;;10.73;9.27;;;8.70;99.90;;;;;;4934557;29;20341;-57
2023/05/04 04:13:04;;;;;;;11.40;10.23;;;8.60;99.90;;;;;;4934164;29;20263;-57
2023/05/04 04:15:31;;;;;;;10.13;8.53;;;8.60;99.90;;;;;;4931019;29;20201;-58
2023/05/04 04:17:58;;;;;;;11.53;8.70;;;8.50;99.90;;;;;;4931294;29;20247;-58
2023/05/04 04:20:25;;;;;;;10.50;9.40;;;8.50;99.90;;;;;;4932133;29;20241;-58
2023/05/04 04:22:52;;;;;;;10.23;9.27;;;8.50;99.90;;;;;;4925282;29;20666;-58
2023/05/04 04:25:20;;;;;;;11.97;9.00;;;8.50;99.90;;;;;;4934250;29;20212;-58
2023/05/04 04:27:47;;;;;;;11.50;10.30;;;8.50;99.90;;;;;;4925193;29;20716;-57
2023/05/04 04:30:16;;;;;;;10.77;9.40;;;8.50;99.90;;;;;;4933903;29;20679;-57
2023/05/04 04:32:43;;;;;;;10.43;9.37;;;8.60;99.90;;;;;;4928487;29;20271;-57
2023/05/04 04:35:10;;;;;;;9.83;8.80;;;8.60;99.90;;;;;;4932471;29;20204;-57
2023/05/04 04:37:37;;;;;;;10.07;9.07;;;8.70;99.90;;;;;;4925953;29;20230;-57
2023/05/04 04:40:06;;;;;;;10.97;8.60;;;8.80;99.90;;;;;;4926715;29;20666;-57
2023/05/04 04:42:33;;;;;;;9.67;8.77;;;8.90;99.90;;;;;;4933691;29;20223;-57
2023/05/04 04:45:02;;;;;;;11.20;10.00;;;9.00;99.90;;;;;;4934283;29;20206;-57
2023/05/04 04:47:34;;;;;;;11.37;10.10;;;9.10;99.90;;;;;;4930337;29;20231;-58
2023/05/04 04:50:02;;;;;;;9.80;8.93;;;9.40;99.90;;;;;;4932090;29;20204;-58
2023/05/04 04:52:32;;;;;;;10.37;9.37;;;9.70;99.90;;;;;;4925837;29;20291;-58
2023/05/04 04:54:59;;;;;;;11.03;9.43;;;10.00;99.90;;;;;;4922507;29;20665;-57
2023/05/04 04:57:26;;;;;;;9.43;8.37;;;10.60;99.90;;;;;;4915272;29;20323;-57
2023/05/04 04:59:53;;;;;;;9.17;8.30;;;11.00;99.90;;;;;;4915135;29;20217;-57
2023/05/04 05:02:21;;;;;;;9.63;8.67;;;11.40;99.90;;;;;;4915076;29;20214;-57
2023/05/04 05:04:49;;;;;;;8.87;8.07;;;12.00;99.90;;;;;;4920737;29;20201;-58
2023/05/04 05:07:17;;;;;;;9.53;8.40;;;12.80;99.90;;;;;;4928141;29;20232;-58
2023/05/04 05:09:44;;;;;;;8.20;7.60;;;13.40;99.90;;;;;;4933530;29;20589;-58
2023/05/04 05:12:10;;;;;;;9.33;8.47;;;14.10;99.90;;;;;;4920861;29;20241;-58
2023/05/04 05:14:37;;;;;;;7.90;7.33;;;15.10;99.90;;;;;;4932821;29;20202;-58
2023/05/04 05:17:04;;;;;;;8.30;7.47;;;15.80;99.90;;;;;;4934711;29;20198;-58
2023/05/04 05:19:35;;;;;;;8.93;8.17;;;16.50;99.90;;;;;;4931631;29;20210;-58
2023/05/04 05:22:04;;;;;;;9.07;8.37;;;17.30;99.90;;;;;;4914526;29;20258;-58
2023/05/04 05:24:31;;;;;;;8.53;7.63;;;17.80;99.90;;;;;;4915379;29;20210;-58
2023/05/04 05:26:58;;;;;;;8.23;7.63;;;18.10;99.90;;;;;;4952577;28;20640;-58
2023/05/04 05:29:25;;;;;;;9.30;8.57;;;18.50;99.90;;;;;;4933658;28;20217;-58
2023/05/04 05:31:52;;;;;;;8.63;7.73;;;18.40;99.90;;;;;;4933460;29;20253;-58
2023/05/04 05:34:19;;;;;;;9.57;8.67;;;18.80;99.90;;;;;;4930995;29;20277;-58
2023/05/04 05:36:47;;;;;;;11.47;9.00;;;18.90;99.90;;;;;;4926571;29;20203;-59
2023/05/04 05:39:16;;;;;;;16.20;9.13;;;19.00;99.90;;;;;;4929420;29;20221;-59
2023/05/04 05:41:44;;;;;;;11.47;9.20;;;19.10;99.90;;;;;;4927568;29;20214;-58
2023/05/04 05:44:11;;;;;;;11.20;9.97;;;19.40;99.90;;;;;;4932953;29;20237;-59
2023/05/04 05:46:38;;;;;;;12.17;9.80;;;19.80;99.90;;;;;;4921233;29;20218;-59
2023/05/04 05:49:06;;;;;;;11.70;9.27;;;19.60;99.90;;;;;;4921403;29;20237;-59
2023/05/04 05:51:33;;;;;;;21.03;10.30;;;19.80;99.90;;;;;;4936351;29;20735;-59
2023/05/04 05:54:00;;;;;;;10.57;8.60;;;20.50;99.90;;;;;;4927846;29;20748;-58
2023/05/04 05:56:28;;;;;;;10.90;8.00;;;20.90;99.90;;;;;;4932756;29;20204;-59
2023/05/04 05:58:55;;;;;;;9.30;7.83;;;21.00;99.90;;;;;;4931254;29;20293;-59
2023/05/04 06:01:22;;;;;;;8.47;7.80;;;20.60;99.90;;;;;;4932636;29;20615;-58
2023/05/04 06:03:49;;;;;;;7.27;6.57;;;21.20;99.90;;;;;;4927418;29;20197;-58
2023/05/04 06:06:16;;;;;;;9.03;7.10;;;21.30;99.90;;;;;;4933673;29;20213;-59
2023/05/04 06:08:43;;;;;;;6.10;5.60;;;21.60;99.90;;;;;;4936269;29;20301;-59
2023/05/04 06:11:11;;;;;;;7.90;7.13;;;22.00;99.90;;;;;;4930801;29;20238;-59
2023/05/04 06:13:39;;;;;;;6.23;5.67;;;21.80;99.90;;;;;;4936260;29;20284;-58
2023/05/04 06:16:06;;;;;;;7.03;5.97;;;22.00;99.90;;;;;;4933989;29;20564;-59
2023/05/04 06:18:33;;;;;;;5.53;5.23;;;22.10;99.90;;;;;;4933135;29;20775;-59
2023/05/04 06:21:01;;;;;;;5.90;5.60;;;22.20;99.90;;;;;;4935595;29;20198;-59
2023/05/04 06:23:28;;;;;;;6.07;5.67;;;23.10;99.90;;;;;;4932999;29;20217;-59
2023/05/04 06:25:55;;;;;;;7.53;5.53;;;23.00;99.90;;;;;;4935686;29;20645;-59
2023/05/04 06:28:22;;;;;;;5.13;4.90;;;23.40;99.90;;;;;;4930633;29;20221;-59
2023/05/04 06:30:50;;;;;;;4.83;4.43;;;24.00;99.90;;;;;;4935643;29;20194;-59
2023/05/04 06:33:17;;;;;;;5.43;3.97;;;24.40;99.90;;;;;;4935046;29;20206;-59
2023/05/04 06:35:44;;;;;;;3.30;3.20;;;24.30;99.90;;;;;;4934057;29;20198;-59
2023/05/04 06:38:11;;;;;;;3.13;3.03;;;23.30;99.90;;;;;;4930831;29;20218;-59
2023/05/04 06:40:38;;;;;;;5.17;3.90;;;23.50;99.90;;;;;;4934096;29;20676;-59
2023/05/04 06:43:05;;;;;;;4.17;3.97;;;23.50;99.90;;;;;;4943106;29;20675;-59
2023/05/04 06:45:34;;;;;;;3.23;3.13;;;24.00;99.90;;;;;;4934789;28;20238;-59
2023/05/04 06:48:03;;;;;;;2.73;2.67;;;24.10;99.90;;;;;;4935361;29;20232;-59
2023/05/04 06:50:31;;;;;;;2.80;2.70;;;24.10;99.90;;;;;;4935898;29;20279;-59
2023/05/04 06:53:03;;;;;;;2.53;2.50;;;24.40;99.90;;;;;;4927389;29;20681;-59
2023/05/04 06:55:30;;;;;;;2.27;2.27;;;24.80;99.90;;;;;;4932450;29;20197;-59
2023/05/04 06:57:57;;;;;;;3.23;3.00;;;24.30;99.90;;;;;;4934440;29;20239;-59
2023/05/04 07:00:25;;;;;;;2.83;2.63;;;24.50;99.90;;;;;;4934869;29;20274;-59
2023/05/04 07:02:52;;;;;;;4.03;3.73;;;23.90;99.90;;;;;;4935000;29;20293;-59
2023/05/04 07:05:21;;;;;;;2.53;2.43;;;24.10;99.90;;;;;;4931560;29;20198;-59
2023/05/04 07:07:48;;;;;;;2.47;2.37;;;24.00;99.90;;;;;;4930375;29;20234;-59
2023/05/04 07:10:16;;;;;;;2.13;2.13;;;24.40;99.90;;;;;;4934413;29;20265;-59
2023/05/04 07:12:43;;;;;;;2.47;2.47;;;24.50;99.90;;;;;;4934638;29;20209;-59
2023/05/04 07:15:11;;;;;;;2.73;2.57;;;25.00;99.90;;;;;;4934786;29;20194;-59
2023/05/04 07:17:38;;;;;;;3.77;3.07;;;25.20;99.50;;;;;;4934477;29;20222;-59
2023/05/04 07:20:06;;;;;;;2.50;2.40;;;25.50;99.90;;;;;;4927974;29;20230;-59
2023/05/04 07:22:35;;;;;;;2.93;2.30;;;25.30;98.80;;;;;;4931864;29;20211;-59
2023/05/04 07:25:02;;;;;;;2.53;2.43;;;25.80;96.40;;;;;;4928405;29;20262;-59
2023/05/04 07:27:30;;;;;;;2.10;2.00;;;25.70;97.00;;;;;;4931657;29;20232;-59
2023/05/04 07:29:57;;;;;;;3.43;3.17;;;25.80;97.70;;;;;;4933904;29;20536;-59
2023/05/04 07:32:24;;;;;;;2.67;2.43;;;25.30;98.40;;;;;;4933288;29;20688;-59
2023/05/04 07:34:51;;;;;;;3.07;2.57;;;24.80;96.20;;;;;;4930113;29;20202;-59
2023/05/04 07:37:17;;;;;;;2.73;2.43;;;25.10;98.40;;;;;;4919778;29;20736;-59
2023/05/04 07:39:46;;;;;;;2.37;2.20;;;25.70;98.40;;;;;;4931735;29;20252;-59
2023/05/04 07:42:13;;;;;;;4.37;4.17;;;26.40;97.30;;;;;;4932574;29;20657;-59
2023/05/04 07:44:40;;;;;;;6.20;5.63;;;26.00;98.40;;;;;;4925603;29;20212;-59
2023/05/04 07:47:08;;;;;;;4.90;4.60;;;25.90;98.70;;;;;;4926956;29;20255;-59
2023/05/04 07:49:35;;;;;;;4.00;3.90;;;26.50;99.30;;;;;;4934701;29;20198;-59
2023/05/04 07:52:03;;;;;;;5.23;4.73;;;25.50;98.60;;;;;;4934698;29;20293;-59
2023/05/04 07:54:30;;;;;;;5.37;4.73;;;24.90;98.80;;;;;;4932254;29;20575;-59
2023/05/04 07:57:02;;;;;;;6.20;5.70;;;25.10;99.90;;;;;;4934323;29;20206;-59
2023/05/04 07:59:29;;;;;;;6.07;5.63;;;25.90;99.90;;;;;;4934130;29;20273;-59
2023/05/04 08:01:56;;;;;;;5.87;5.30;;;25.80;99.50;;;;;;4931646;29;20833;-59
2023/05/04 08:04:23;;;;;;;4.87;4.63;;;24.70;99.90;;;;;;4933608;29;20201;-59
2023/05/04 08:06:50;;;;;;;5.57;5.17;;;24.70;99.90;;;;;;4933857;29;20198;-59
2023/05/04 08:09:18;;;;;;;4.97;4.57;;;24.60;99.90;;;;;;4928866;29;20253;-59
2023/05/04 08:11:45;;;;;;;5.37;5.03;;;25.10;98.90;;;;;;4933883;29;20688;-59
2023/05/04 08:14:14;;;;;;;4.30;4.20;;;25.80;99.20;;;;;;4926417;29;20245;-59
2023/05/04 08:16:41;;;;;;;5.40;5.10;;;25.70;99.70;;;;;;4933729;29;20210;-59
2023/05/04 08:19:08;;;;;;;5.03;4.67;;;26.20;97.50;;;;;;4931202;29;20218;-59
2023/05/04 08:21:35;;;;;;;4.40;4.20;;;26.70;96.60;;;;;;4933530;29;20237;-59
2023/05/04 08:24:03;;;;;;;5.03;4.73;;;26.90;98.10;;;;;;4931906;29;20673;-59
2023/05/04 08:26:31;;;;;;;7.07;6.67;;;26.00;98.50;;;;;;4929378;29;20213;-59
2023/05/04 08:29:06;;;;;;;7.83;7.30;;;25.00;99.90;;;;;;4933332;29;20232;-59
2023/05/04 08:31:34;;;;;;;7.57;7.00;;;25.00;99.90;;;;;;4933111;29;20201;-70
2023/05/04 08:34:01;;;;;;;5.87;5.57;;;24.60;99.90;;;;;;4933092;29;20559;-69
2023/05/04 08:36:28;;;;;;;6.10;5.60;;;25.20;99.30;;;;;;4932058;29;20230;-60
2023/05/04 08:38:55;;;;;;;7.13;6.57;;;25.80;99.70;;;;;;4933644;29;20222;-60
2023/05/04 08:41:23;;;;;;;6.90;6.50;;;26.00;99.90;;;;;;4928426;29;20216;-60
2023/05/04 08:43:50;;;;;;;8.40;7.80;;;25.80;99.20;;;;;;4932309;29;20204;-59
2023/05/04 08:46:17;;;;;;;8.60;8.00;;;25.30;99.90;;;;;;4933626;29;20672;-59
2023/05/04 08:48:46;;;;;;;8.63;6.90;;;24.80;99.90;;;;;;4926942;29;20716;-59
2023/05/04 08:51:14;;;;;;;8.60;8.07;;;24.20;99.90;;;;;;4933461;29;20281;-60
2023/05/04 08:53:45;;;;;;;8.13;7.63;;;24.50;99.90;;;;;;4933427;29;20603;-60
2023/05/04 08:56:15;;;;;;;8.77;8.17;;;24.50;99.90;;;;;;4927704;29;20285;-59
2023/05/04 08:58:49;;;;;;;9.30;8.63;;;24.50;99.90;;;;;;4929288;29;20353;-59
2023/05/04 09:01:17;;;;;;;7.73;7.27;;;24.40;99.90;;;;;;4931876;29;20258;-60
2023/05/04 09:03:47;;;;;;;7.50;6.93;;;24.50;99.90;;;;;;4933615;29;20293;-59
2023/05/04 09:06:14;;;;;;;7.57;6.97;;;25.50;99.30;;;;;;4933702;29;20206;-60
2023/05/04 09:08:42;;;;;;;8.23;7.60;;;26.20;99.70;;;;;;4930379;29;20650;-59
2023/05/04 09:11:09;;;;;;;8.67;8.17;;;26.60;99.90;;;;;;4926931;29;20579;-60
2023/05/04 09:13:36;;;;;;;7.90;7.40;;;27.20;98.60;;;;;;4933173;29;20253;-60
2023/05/04 09:16:04;;;;;;;7.27;6.67;;;27.30;96.80;;;;;;4933427;29;20300;-60
2023/05/04 09:18:37;;;;;;;5.97;5.53;;;27.90;96.50;;;;;;4930762;29;20217;-61
2023/05/04 09:21:06;;;;;;;6.50;5.90;;;28.00;94.90;;;;;;4933437;29;20743;-60
2023/05/04 09:23:34;;;;;;;7.43;6.93;;;28.40;94.70;;;;;;4935289;29;20205;-61
2023/05/04 09:26:01;;;;;;;8.07;7.50;;;27.80;94.10;;;;;;4933797;29;20204;-60
2023/05/04 09:28:37;;;;;;;10.73;8.67;;;26.40;96.90;;;;;;4935981;29;20253;-60
2023/05/04 09:31:05;;;;;;;7.23;6.73;;;26.40;95.90;;;;;;4939884;29;20202;-59
2023/05/04 09:33:32;;;;;;;8.57;8.07;;;27.00;95.10;;;;;;4936534;29;20196;-59
2023/05/04 09:36:12;;;;;;;7.07;6.67;;;27.10;95.40;;;;;;4936261;29;20547;-60
2023/05/04 09:38:40;;;;;;;7.73;7.03;;;26.80;96.10;;;;;;4936331;29;20296;-60
2023/05/04 09:41:07;;;;;;;8.10;7.60;;;26.20;98.80;;;;;;4936209;29;20198;-60
2023/05/04 09:43:39;;;;;;;6.77;6.47;;;26.50;98.20;;;;;;4934296;29;20572;-59
2023/05/04 09:46:07;;;;;;;7.07;6.67;;;26.60;98.50;;;;;;4933590;29;20194;-60
2023/05/04 09:48:35;;;;;;;36.80;16.90;;;27.10;96.40;;;;;;4936069;29;20702;-60
2023/05/04 09:51:05;;;;;;;70.43;22.47;;;27.20;98.90;;;;;;4936251;29;20198;-59
2023/05/04 09:53:32;;;;;;;14.43;8.87;;;25.70;98.10;;;;;;4935852;29;20684;-59
2023/05/04 09:56:10;;;;;;;6.93;6.60;;;26.00;99.50;;;;;;4936753;29;20350;-60
2023/05/04 09:58:37;;;;;;;7.00;6.60;;;26.30;99.20;;;;;;4930848;29;20225;-60
2023/05/04 10:01:05;;;;;;;8.80;8.07;;;26.80;98.50;;;;;;4920192;29;20218;-60
2023/05/04 10:03:32;;;;;;;7.13;6.67;;;26.80;97.50;;;;;;4926049;29;20202;-59
2023/05/04 10:06:03;;;;;;;7.80;7.40;;;26.80;97.50;;;;;;4927993;29;20206;-60
2023/05/04 10:08:31;;;;;;;9.83;9.03;;;26.70;97.10;;;;;;4928175;29;20234;-59
2023/05/04 10:10:58;;;;;;;7.93;7.53;;;26.90;97.00;;;;;;4935955;29;20198;-60
2023/05/04 10:13:26;;;;;;;7.73;7.13;;;26.90;97.60;;;;;;4935754;29;20194;-60
2023/05/04 10:16:12;;;;;;;11.40;8.83;;;27.20;97.00;;;;;;4935918;29;20300;-60
2023/05/04 10:18:52;;;;;;;8.57;8.07;;;26.90;98.10;;;;;;4929663;29;20225;-60
2023/05/04 10:21:29;;;;;;;9.53;8.83;;;25.90;99.10;;;;;;4935288;29;20297;-60
2023/05/04 10:24:33;;;;;;;9.57;8.80;;;26.30;98.90;;;;;;4932639;29;20702;-60
2023/05/04 10:27:07;;;;;;;7.77;7.13;;;26.30;98.90;;;;;;4910425;29;20194;-60
2023/05/04 10:29:37;;;;;;;7.20;6.80;;;26.70;99.90;;;;;;4931155;29;20217;-59
2023/05/04 10:32:06;;;;;;;6.87;6.47;;;26.60;99.50;;;;;;4935643;29;20214;-60
2023/05/04 10:34:35;;;;;;;8.07;7.50;;;27.10;97.90;;;;;;4927569;29;20202;-60
2023/05/04 10:37:03;;;;;;;9.20;8.50;;;26.90;97.30;;;;;;4931513;29;20198;-60
2023/05/04 10:39:34;;;;;;;7.23;6.83;;;26.90;97.20;;;;;;4919833;29;20220;-60
2023/05/04 10:42:02;;;;;;;6.90;6.43;;;26.40;97.30;;;;;;4935758;29;20205;-60
2023/05/04 10:44:31;;;;;;;8.33;7.23;;;26.40;98.40;;;;;;4933916;29;20206;-60
2023/05/04 10:47:04;;;;;;;7.67;7.17;;;26.20;98.40;;;;;;4935908;29;20194;-59
2023/05/04 10:49:32;;;;;;;6.87;6.37;;;25.80;99.00;;;;;;4935958;29;20229;-60
2023/05/04 10:52:07;;;;;;;7.38;6.72;;;25.80;99.00;;;;;;4934673;29;20528;-59
2023/05/04 10:54:35;;;;;;;6.97;6.67;;;25.80;99.90;;;;;;4928109;29;20212;-66
2023/05/04 10:57:09;;;;;;;6.93;6.50;;;25.30;99.90;;;;;;4934526;29;20202;-66
2023/05/04 10:59:36;;;;;;;6.23;5.77;;;24.30;99.90;;;;;;4928519;29;20228;-60
2023/05/04 11:02:06;;;;;;;5.83;5.53;;;24.40;99.40;;;;;;4935564;29;20217;-69
2023/05/04 11:04:34;;;;;;;6.27;5.83;;;24.50;99.30;;;;;;4935314;29;20205;-70
2023/05/04 11:07:02;;;;;;;5.10;4.80;;;24.80;99.90;;;;;;4935250;29;20248;-70
2023/05/04 11:09:36;;;;;;;5.93;5.63;;;24.50;99.60;;;;;;4935174;29;21032;-67
2023/05/04 11:12:03;;;;;;;5.03;4.30;;;24.50;98.20;;;;;;4933172;29;20225;-68
2023/05/04 11:14:30;;;;;;;4.53;4.23;;;24.40;98.80;;;;;;4935109;29;20250;-69
2023/05/04 11:17:09;;;;;;;4.20;4.00;;;24.10;97.70;;;;;;4935148;29;20591;-69
2023/05/04 11:19:36;;;;;;;4.03;3.73;;;24.00;98.90;;;;;;4935099;29;20206;-67
2023/05/04 11:22:03;;;;;;;3.30;3.17;;;24.00;98.80;;;;;;4933139;29;20525;-69
2023/05/04 11:24:43;;;;;;;4.17;3.97;;;24.20;99.30;;;;;;4935314;29;20569;-69
2023/05/04 11:27:21;;;;;;;3.70;3.53;;;24.10;98.20;;;;;;4935318;29;20213;-69
2023/05/04 11:29:54;;;;;;;4.83;3.90;;;23.40;99.20;;;;;;4935074;29;20229;-66
2023/05/04 11:32:22;;;;;;;4.70;4.50;;;23.10;98.70;;;;;;4934961;29;20206;-67
2023/05/04 11:34:49;;;;;;;4.53;4.20;;;23.30;99.90;;;;;;4942111;23;20329;-62
2023/05/04 11:37:16;;;;;;;4.10;4.00;;;23.10;99.90;;;;;;4913351;29;20207;-63
2023/05/04 11:39:43;;;;;;;5.00;4.70;;;23.10;99.90;;;;;;4916211;29;20195;-58
2023/05/04 11:42:11;;;;;;;4.33;3.93;;;22.90;99.90;;;;;;4915518;29;20203;-59
2023/05/04 11:44:38;;;;;;;4.20;4.10;;;22.90;99.90;;;;;;4915242;29;20313;-59
2023/05/04 11:47:05;;;;;;;3.73;3.63;;;23.00;99.90;;;;;;4916378;29;20210;-62
2023/05/04 11:49:34;;;;;;;5.60;4.20;;;22.90;99.90;;;;;;4915878;29;20222;-64
2023/05/04 11:52:07;;;;;;;3.97;3.87;;;23.20;99.90;;;;;;4908994;29;20203;-65
2023/05/04 11:54:34;;;;;;;3.93;3.83;;;23.00;99.90;;;;;;4909002;29;20223;-65
2023/05/04 11:57:02;;;;;;;3.70;3.40;;;23.10;99.90;;;;;;4916093;29;20206;-65
2023/05/04 11:59:30;;;;;;;4.10;3.87;;;22.90;99.90;;;;;;4915844;29;20295;-63
2023/05/04 12:01:57;;;;;;;3.10;2.93;;;22.70;99.90;;;;;;4915939;29;20207;-63
2023/05/04 12:04:30;;;;;;;4.03;3.23;;;22.30;99.90;;;;;;4915655;29;20226;-65
2023/05/04 12:06:58;;;;;;;3.83;3.70;;;22.00;99.90;;;;;;4912343;29;20203;-51
2023/05/04 12:09:25;;;;;;;3.43;3.30;;;22.00;99.90;;;;;;4915224;29;20211;-51
2023/05/04 12:11:56;;;;;;;4.50;3.90;;;22.00;99.90;;;;;;4915826;29;20207;-51
2023/05/04 12:14:27;;;;;;;5.40;5.00;;;22.10;99.90;;;;;;4915438;29;20777;-51
2023/05/04 12:16:56;;;;;;;4.13;3.93;;;21.90;99.90;;;;;;4915815;29;20300;-51
2023/05/04 12:19:23;;;;;;;3.17;2.93;;;22.10;99.90;;;;;;4914021;29;20687;-51
2023/05/04 12:21:51;;;;;;;3.63;3.53;;;22.20;99.90;;;;;;4915580;29;20736;-51
2023/05/04 12:24:21;;;;;;;3.60;3.27;;;22.10;99.90;;;;;;4911844;29;20250;-67
2023/05/04 12:26:48;;;;;;;2.83;2.70;;;21.90;99.90;;;;;;4912841;29;20222;-65
2023/05/04 12:29:15;;;;;;;4.07;3.87;;;22.10;99.90;;;;;;4915328;29;20226;-63
2023/05/04 12:31:42;;;;;;;3.00;2.90;;;22.30;99.90;;;;;;4914386;29;20206;-66
2023/05/04 12:34:09;;;;;;;2.77;2.67;;;22.50;99.90;;;;;;4912767;29;20235;-64
2023/05/04 12:36:36;;;;;;;2.27;2.20;;;22.60;99.90;;;;;;4915372;29;20258;-66
2023/05/04 12:39:03;;;;;;;2.93;2.73;;;22.60;99.90;;;;;;4913702;29;20198;-64
2023/05/04 12:41:32;;;;;;;3.10;2.90;;;22.70;99.90;;;;;;4907757;29;20261;-65
2023/05/04 12:43:59;;;;;;;2.90;2.80;;;22.60;99.90;;;;;;4907846;29;20290;-63
2023/05/04 12:46:26;;;;;;;2.50;2.43;;;22.60;99.90;;;;;;4914838;29;20202;-66
2023/05/04 12:48:53;;;;;;;2.80;2.60;;;22.40;99.80;;;;;;4915562;29;20281;-64
2023/05/04 12:51:20;;;;;;;2.67;2.67;;;22.30;99.90;;;;;;4915631;29;20206;-63